Arapahoe, Colorado
Current Conditions -  °F | °C
As of 12:53 AM on Wednesday 26 Nov 2014 (Local Time) from KITR Reporting Station
Light Snow Light Snow  
Wind Chill: 23°   Ceiling: 2100
Heat Index: 33°   Visibility: 2mi
Dew Point: 30°   Wind: 16mph
Humidity: 89%   Direction: 340°NNW
Pressure: 30.1"   Gusts: NA
Location:  38.85°N, 102.18°W
Report Text: KITR 260753Z AUTO 34014KT 2SM -SN BR FEW005 SCT014 OVC021 01/M01 A3010 RMK AO2 SLP195 P0001 T00061011
Loading
Personal Weather Stations






























Interactive Weather Map New forecast layout! Learn more

10-Day Weather Forecast

Advertisements
Track Severe Weather on mobile